Time;durP1;ratioP1;P1;durP2;ratioP2;P2;SDS_P1;SDS_P2;PMS_P1;PMS_P2;Temp;Humidity;BMP_temperature;BMP_pressure;BME280_temperature;BME280_humidity;BME280_pressure;Samples;Min_cycle;Max_cycle;Signal;HPM_P1;HPM_P2
2022/04/20 00:02:02;;;;;;;5.80;2.85;;;7.40;99.90;;;;;;4876129;29;20091;-82
2022/04/20 00:04:28;;;;;;;6.75;2.90;;;7.40;99.90;;;;;;4860442;29;20068;-82
2022/04/20 00:06:53;;;;;;;6.60;2.88;;;8.00;99.90;;;;;;4860746;29;20063;-82
2022/04/20 00:09:19;;;;;;;6.35;3.35;;;7.30;99.90;;;;;;4861292;29;20849;-82
2022/04/20 00:11:46;;;;;;;5.07;2.80;;;7.30;99.90;;;;;;4860503;29;20451;-83
2022/04/20 00:14:12;;;;;;;6.15;3.08;;;7.30;99.90;;;;;;4875905;29;20111;-82
2022/04/20 00:16:38;;;;;;;5.68;2.63;;;7.30;99.90;;;;;;4876657;29;20056;-82
2022/04/20 00:19:03;;;;;;;6.40;3.22;;;7.30;99.90;;;;;;4875178;29;20119;-82
2022/04/20 00:21:29;;;;;;;8.45;3.33;;;7.20;99.90;;;;;;4876673;29;20094;-82
2022/04/20 00:23:54;;;;;;;5.82;3.15;;;7.70;99.90;;;;;;4860633;29;20569;-82
2022/04/20 00:26:21;;;;;;;6.28;3.08;;;7.20;99.90;;;;;;4875754;29;20513;-82
2022/04/20 00:28:46;;;;;;;5.43;2.78;;;7.10;99.90;;;;;;4875603;29;20219;-82
2022/04/20 00:31:12;;;;;;;5.95;3.05;;;7.10;99.90;;;;;;4875553;29;20057;-81
2022/04/20 00:33:37;;;;;;;6.43;2.88;;;7.10;99.90;;;;;;4860394;29;20127;-83
2022/04/20 00:36:04;;;;;;;6.57;3.03;;;7.10;99.90;;;;;;4875817;29;20156;-82
2022/04/20 00:38:30;;;;;;;6.18;3.58;;;7.00;99.90;;;;;;4864804;29;20080;-82
2022/04/20 00:40:56;;;;;;;6.07;3.20;;;7.10;99.90;;;;;;4878694;29;20338;-82
2022/04/20 00:43:22;;;;;;;5.35;2.80;;;7.30;99.90;;;;;;4879694;29;20056;-83
2022/04/20 00:45:49;;;;;;;5.15;2.78;;;7.00;99.90;;;;;;4862675;29;20048;-83
2022/04/20 00:48:16;;;;;;;8.68;3.28;;;7.00;99.90;;;;;;4864449;29;20052;-83
2022/04/20 00:50:43;;;;;;;7.15;3.50;;;7.00;99.90;;;;;;4879909;29;20055;-83
2022/04/20 00:53:08;;;;;;;6.30;3.28;;;7.30;99.90;;;;;;4863435;29;20489;-83
2022/04/20 00:55:34;;;;;;;6.07;2.88;;;7.00;99.90;;;;;;4879374;29;20099;-83
2022/04/20 00:58:00;;;;;;;8.68;3.22;;;7.00;99.90;;;;;;4879333;29;20052;-83
2022/04/20 01:00:27;;;;;;;7.03;3.80;;;7.00;99.90;;;;;;4878030;29;20085;-83
2022/04/20 01:02:53;;;;;;;6.80;3.25;;;6.90;99.90;;;;;;4879239;29;20065;-83
2022/04/20 01:05:21;;;;;;;5.25;3.05;;;6.90;99.90;;;;;;4879669;29;20048;-83
2022/04/20 01:07:47;;;;;;;11.95;3.20;;;6.90;99.90;;;;;;4878741;29;20501;-84
2022/04/20 01:10:13;;;;;;;7.20;3.40;;;6.90;99.90;;;;;;4879294;29;20537;-83
2022/04/20 01:12:43;;;;;;;6.45;3.42;;;6.90;99.90;;;;;;4879331;29;20048;-83
2022/04/20 01:15:09;;;;;;;6.85;3.40;;;6.90;99.90;;;;;;4862216;29;20103;-83
2022/04/20 01:17:35;;;;;;;5.53;3.22;;;7.00;99.90;;;;;;4879163;29;20621;-83
2022/04/20 01:20:02;;;;;;;6.10;3.30;;;7.30;99.90;;;;;;4863407;29;20064;-83
2022/04/20 01:22:28;;;;;;;7.55;3.92;;;6.90;99.90;;;;;;4878471;29;20065;-83
2022/04/20 01:24:54;;;;;;;8.07;3.28;;;6.80;99.90;;;;;;4879058;29;20397;-83
2022/04/20 01:27:19;;;;;;;7.55;3.28;;;7.30;99.90;;;;;;4879610;29;20052;-83
2022/04/20 01:29:47;;;;;;;9.50;3.55;;;7.40;99.90;;;;;;4877021;29;20045;-83
2022/04/20 01:32:12;;;;;;;7.57;3.88;;;6.80;99.90;;;;;;4879469;29;20783;-83
2022/04/20 01:34:38;;;;;;;8.57;3.70;;;6.80;99.90;;;;;;4879068;29;20056;-84
2022/04/20 01:37:04;;;;;;;7.32;3.63;;;6.70;99.90;;;;;;4862933;29;20872;-84
2022/04/20 01:39:30;;;;;;;5.63;3.60;;;6.70;99.90;;;;;;4878192;29;20050;-84
2022/04/20 01:41:55;;;;;;;8.88;4.35;;;6.70;99.90;;;;;;4863296;29;20416;-84
2022/04/20 01:44:21;;;;;;;6.72;4.07;;;6.70;99.90;;;;;;4862199;29;20037;-83
2022/04/20 01:46:47;;;;;;;5.95;3.80;;;6.60;99.90;;;;;;4862706;29;20052;-83
2022/04/20 01:49:12;;;;;;;6.90;3.70;;;7.00;99.90;;;;;;4877121;29;20057;-83
2022/04/20 01:51:47;;;;;;;7.93;3.85;;;6.50;99.90;;;;;;4863813;29;20151;-84
2022/04/20 01:54:13;;;;;;;7.07;3.58;;;6.50;99.90;;;;;;4863587;29;20055;-84
2022/04/20 01:56:39;;;;;;;7.50;3.28;;;6.50;99.90;;;;;;4878131;29;20160;-84
2022/04/20 01:59:05;;;;;;;5.85;3.42;;;6.50;99.90;;;;;;4877606;29;20067;-83
2022/04/20 02:04:15;;;;;;;6.15;3.65;;;6.50;99.90;;;;;;4877737;29;20059;-83
2022/04/20 02:06:41;;;;;;;6.22;3.53;;;6.50;99.90;;;;;;4863127;29;20139;-83
2022/04/20 02:09:06;;;;;;;6.78;3.55;;;6.60;99.90;;;;;;4877990;29;20044;-83
2022/04/20 02:11:32;;;;;;;7.70;3.78;;;6.50;99.90;;;;;;4877910;29;20045;-84
2022/04/20 02:13:59;;;;;;;6.05;3.53;;;6.80;99.90;;;;;;4862214;29;20489;-83
2022/04/20 02:16:25;;;;;;;6.70;3.88;;;6.50;99.90;;;;;;4878546;29;20147;-83
2022/04/20 02:18:51;;;;;;;9.50;3.88;;;6.50;99.90;;;;;;4861421;29;20139;-82
2022/04/20 02:21:16;;;;;;;6.45;3.85;;;6.50;99.90;;;;;;4862800;29;20041;-82
2022/04/20 02:23:42;;;;;;;5.25;3.50;;;6.40;99.90;;;;;;4862671;29;20051;-84
2022/04/20 02:26:08;;;;;;;7.10;4.22;;;6.40;99.90;;;;;;4877372;29;20048;-83
2022/04/20 02:28:33;;;;;;;6.50;3.90;;;6.80;99.90;;;;;;4894407;29;20056;-84
2022/04/20 02:30:59;;;;;;;8.10;3.75;;;6.30;99.90;;;;;;4879846;29;20054;-82
2022/04/20 02:33:25;;;;;;;6.28;3.83;;;6.30;99.90;;;;;;4880935;29;20051;-82
2022/04/20 02:35:51;;;;;;;8.48;4.15;;;6.20;99.90;;;;;;4880402;29;20055;-82
2022/04/20 02:38:17;;;;;;;12.07;4.13;;;6.70;99.90;;;;;;4896533;29;20063;-82
2022/04/20 02:40:44;;;;;;;7.28;3.83;;;6.20;99.90;;;;;;4896967;29;20440;-82
2022/04/20 02:43:10;;;;;;;7.03;3.90;;;6.20;99.90;;;;;;4880660;29;20111;-82
2022/04/20 02:45:36;;;;;;;6.22;4.03;;;6.20;99.90;;;;;;4879540;29;20036;-82
2022/04/20 02:48:02;;;;;;;7.80;4.18;;;6.20;99.90;;;;;;4880430;29;20046;-82
2022/04/20 02:50:28;;;;;;;9.00;4.50;;;6.10;99.90;;;;;;4881583;29;20050;-83
2022/04/20 02:52:55;;;;;;;9.88;4.15;;;6.10;99.90;;;;;;4895572;29;20063;-82
2022/04/20 02:55:21;;;;;;;6.50;3.72;;;6.10;99.90;;;;;;4896065;29;20116;-83
2022/04/20 02:57:47;;;;;;;10.90;4.05;;;6.10;99.90;;;;;;4895908;29;20098;-82
2022/04/20 03:00:13;;;;;;;7.63;4.00;;;6.20;99.90;;;;;;4884208;29;20076;-82
2022/04/20 03:02:39;;;;;;;8.32;3.90;;;6.00;99.90;;;;;;4894700;29;20052;-83
2022/04/20 03:05:05;;;;;;;10.63;3.90;;;6.00;99.90;;;;;;4876977;29;20058;-83
2022/04/20 03:07:31;;;;;;;7.60;4.18;;;6.00;99.90;;;;;;4877310;29;20052;-82
2022/04/20 03:09:56;;;;;;;7.75;4.05;;;6.50;99.90;;;;;;4877042;29;20436;-82
2022/04/20 03:12:22;;;;;;;7.85;3.80;;;6.00;99.90;;;;;;4877558;29;20053;-84
2022/04/20 03:14:48;;;;;;;8.25;3.70;;;5.90;99.90;;;;;;4875566;29;20461;-84
2022/04/20 03:17:14;;;;;;;6.03;3.83;;;6.20;99.90;;;;;;4877727;29;20091;-83
2022/04/20 03:19:40;;;;;;;6.55;4.05;;;5.80;99.90;;;;;;4876972;29;20481;-83
2022/04/20 03:22:05;;;;;;;5.93;3.97;;;6.50;99.90;;;;;;4876478;29;20048;-83
2022/04/20 03:24:31;;;;;;;7.28;4.53;;;5.90;99.90;;;;;;4861130;29;20050;-83
2022/04/20 03:26:56;;;;;;;7.82;4.40;;;6.20;99.90;;;;;;4877100;29;20094;-83
2022/04/20 03:29:22;;;;;;;7.28;4.18;;;6.00;99.90;;;;;;4860005;29;20135;-83
2022/04/20 03:31:48;;;;;;;8.82;4.35;;;5.40;99.90;;;;;;4860706;29;20059;-84
2022/04/20 03:34:14;;;;;;;7.18;4.18;;;5.30;99.90;;;;;;4861764;29;20052;-83
2022/04/20 03:36:40;;;;;;;7.93;4.50;;;5.30;99.90;;;;;;4876170;29;20052;-84
2022/04/20 03:39:06;;;;;;;10.07;4.38;;;5.20;99.90;;;;;;4872087;29;20402;-83
2022/04/20 03:41:32;;;;;;;8.07;4.70;;;5.20;99.90;;;;;;4877060;29;20147;-84
2022/04/20 03:43:57;;;;;;;11.50;4.05;;;5.10;99.90;;;;;;4859770;29;20131;-84
2022/04/20 03:46:24;;;;;;;6.55;4.45;;;5.00;99.90;;;;;;4861447;29;20089;-86
2022/04/20 03:48:50;;;;;;;8.25;4.38;;;5.00;99.90;;;;;;4859781;29;20096;-83
2022/04/20 03:51:16;;;;;;;8.27;4.40;;;5.00;99.90;;;;;;4861777;29;20048;-84
2022/04/20 03:53:42;;;;;;;8.90;3.88;;;4.90;99.90;;;;;;4877089;29;20420;-84
2022/04/20 03:56:07;;;;;;;6.63;4.40;;;4.90;99.90;;;;;;4874664;29;20161;-86
2022/04/20 03:58:33;;;;;;;9.82;5.07;;;4.90;99.90;;;;;;4876237;29;20163;-84
2022/04/20 04:01:01;;;;;;;7.47;4.55;;;4.80;99.90;;;;;;4875432;29;20044;-83
2022/04/20 04:03:27;;;;;;;8.38;4.78;;;4.80;99.90;;;;;;4857590;29;20052;-83
2022/04/20 04:05:52;;;;;;;8.90;5.00;;;4.80;99.90;;;;;;4872903;29;20057;-83
2022/04/20 04:08:18;;;;;;;11.88;4.93;;;4.80;99.90;;;;;;4858560;29;20059;-83
2022/04/20 04:10:44;;;;;;;12.20;5.15;;;4.70;99.90;;;;;;4857565;29;20108;-83
2022/04/20 04:13:10;;;;;;;8.82;4.82;;;4.70;99.90;;;;;;4857551;29;20405;-83
2022/04/20 04:15:35;;;;;;;9.35;5.78;;;4.60;99.90;;;;;;4867224;29;20048;-86
2022/04/20 04:18:04;;;;;;;10.45;5.30;;;4.50;99.90;;;;;;4891639;29;20036;-84
2022/04/20 04:20:30;;;;;;;10.18;4.97;;;4.50;99.90;;;;;;4877058;29;20055;-83
2022/04/20 04:22:56;;;;;;;10.80;5.25;;;4.50;99.90;;;;;;4892758;29;20049;-83
2022/04/20 04:25:22;;;;;;;8.85;5.60;;;4.40;99.90;;;;;;4891166;29;20513;-83
2022/04/20 04:27:48;;;;;;;9.93;5.20;;;4.40;99.90;;;;;;4883955;29;20486;-83
2022/04/20 04:30:13;;;;;;;7.65;5.13;;;4.40;99.90;;;;;;4857478;29;20051;-83
2022/04/20 04:32:39;;;;;;;10.38;5.25;;;4.30;99.90;;;;;;4873055;29;20482;-83
2022/04/20 04:35:08;;;;;;;12.35;5.30;;;4.50;99.90;;;;;;4872955;29;20049;-83
2022/04/20 04:37:34;;;;;;;11.73;5.22;;;4.30;99.90;;;;;;4873389;29;20417;-83
2022/04/20 04:40:02;;;;;;;8.93;4.90;;;4.20;99.90;;;;;;4856925;29;20145;-83
2022/04/20 04:42:27;;;;;;;8.77;5.30;;;4.20;99.90;;;;;;4872919;29;20056;-83
2022/04/20 04:44:53;;;;;;;7.65;5.25;;;4.20;99.90;;;;;;4870982;29;20049;-83
2022/04/20 04:50:04;;;;;;;10.32;5.13;;;4.20;99.90;;;;;;4872096;29;20057;-83
2022/04/20 04:52:31;;;;;;;13.40;5.35;;;4.20;99.90;;;;;;4857448;29;20049;-82
2022/04/20 04:54:57;;;;;;;19.95;5.32;;;4.20;99.90;;;;;;4857244;29;20378;-83
2022/04/20 04:57:22;;;;;;;17.48;6.10;;;4.30;99.90;;;;;;4857575;29;20519;-82
2022/04/20 04:59:48;;;;;;;7.60;4.40;;;4.20;99.90;;;;;;4855982;29;20048;-83
2022/04/20 05:02:14;;;;;;;12.65;5.32;;;4.30;99.90;;;;;;4857317;29;20458;-83
2022/04/20 05:04:40;;;;;;;11.35;5.68;;;4.30;99.90;;;;;;4857484;29;20049;-83
2022/04/20 05:07:06;;;;;;;10.63;5.20;;;4.30;99.90;;;;;;4871769;29;20395;-82
2022/04/20 05:09:32;;;;;;;7.50;5.05;;;4.60;99.90;;;;;;4857691;29;20044;-82
2022/04/20 05:11:58;;;;;;;13.25;5.68;;;4.40;99.90;;;;;;4872796;29;20505;-81
2022/04/20 05:14:24;;;;;;;8.75;4.82;;;4.40;99.90;;;;;;4871952;29;20037;-81
2022/04/20 05:16:50;;;;;;;11.45;4.78;;;5.20;99.90;;;;;;4857391;29;20397;-81
2022/04/20 05:19:16;;;;;;;8.25;4.88;;;5.10;99.90;;;;;;4857034;29;20053;-80
2022/04/20 05:21:43;;;;;;;24.77;6.00;;;4.80;99.90;;;;;;4872512;29;20053;-81
2022/04/20 05:24:09;;;;;;;17.58;5.90;;;4.40;99.90;;;;;;4875185;29;20553;-81
2022/04/20 05:26:35;;;;;;;16.05;6.28;;;4.50;99.90;;;;;;4873303;29;20059;-81
2022/04/20 05:29:00;;;;;;;16.00;5.97;;;4.60;99.90;;;;;;4877409;29;20457;-82
2022/04/20 05:31:26;;;;;;;18.15;6.20;;;4.70;99.90;;;;;;4894551;29;20077;-82
2022/04/20 05:33:52;;;;;;;17.50;5.53;;;4.70;99.90;;;;;;4879009;29;20055;-83
2022/04/20 05:36:18;;;;;;;17.90;5.47;;;4.80;99.90;;;;;;4878560;29;20052;-83
2022/04/20 05:41:41;;;;;;;17.23;4.68;;;5.00;99.90;;;;;;4893900;29;20063;-82
2022/04/20 05:44:09;;;;;;;9.57;4.78;;;5.10;99.90;;;;;;4893251;29;20048;-83
2022/04/20 05:46:35;;;;;;;15.13;4.75;;;5.20;99.90;;;;;;4879131;29;20053;-82
2022/04/20 05:49:01;;;;;;;8.23;4.45;;;5.70;99.90;;;;;;4886091;29;20482;-83
2022/04/20 05:51:27;;;;;;;6.88;4.32;;;6.00;99.90;;;;;;4887678;29;20099;-82
2022/04/20 05:53:52;;;;;;;18.58;4.50;;;6.30;99.90;;;;;;4878322;29;20118;-83
2022/04/20 05:56:18;;;;;;;11.13;4.88;;;6.40;99.90;;;;;;4878187;29;20068;-83
2022/04/20 05:58:47;;;;;;;8.80;4.05;;;6.50;99.90;;;;;;4894804;29;20420;-83
2022/04/20 06:01:14;;;;;;;13.85;5.60;;;5.90;99.90;;;;;;4878102;29;20088;-83
2022/04/20 06:03:40;;;;;;;7.97;4.22;;;6.10;99.90;;;;;;4887257;29;20472;-84
2022/04/20 06:06:06;;;;;;;9.35;5.22;;;6.20;99.90;;;;;;4896758;29;20048;-84
2022/04/20 06:08:32;;;;;;;6.90;4.00;;;6.30;99.90;;;;;;4897881;29;20123;-83
2022/04/20 06:10:58;;;;;;;10.60;4.85;;;6.60;99.90;;;;;;4912443;29;20151;-83
2022/04/20 06:13:24;;;;;;;7.63;3.90;;;6.50;99.90;;;;;;4897305;29;20732;-83
2022/04/20 06:15:51;;;;;;;9.55;4.63;;;6.90;99.90;;;;;;4896263;29;20087;-82
2022/04/20 06:18:17;;;;;;;8.55;4.50;;;7.10;99.90;;;;;;4896811;29;20056;-83
2022/04/20 06:20:42;;;;;;;8.85;4.75;;;6.80;99.90;;;;;;4897508;29;20408;-82
2022/04/20 06:23:08;;;;;;;7.90;4.40;;;6.80;99.90;;;;;;4912063;29;20048;-83
2022/04/20 06:25:34;;;;;;;8.80;4.20;;;6.90;99.90;;;;;;4911396;29;20107;-83
2022/04/20 06:28:01;;;;;;;14.05;4.35;;;7.00;99.90;;;;;;4886997;29;20056;-83
2022/04/20 06:30:26;;;;;;;13.27;5.38;;;7.90;99.90;;;;;;4892237;29;20128;-85
2022/04/20 06:32:52;;;;;;;13.65;4.28;;;7.50;99.90;;;;;;4889243;29;20131;-84
2022/04/20 06:35:18;;;;;;;9.93;4.68;;;7.40;99.90;;;;;;4896705;29;20068;-85
2022/04/20 06:37:43;;;;;;;11.13;4.70;;;7.40;99.90;;;;;;4906116;29;20052;-83
2022/04/20 06:40:09;;;;;;;6.10;3.83;;;8.00;99.90;;;;;;4896654;29;20048;-85
2022/04/20 06:42:35;;;;;;;9.82;4.80;;;7.50;99.90;;;;;;4902286;29;20063;-85
2022/04/20 06:45:01;;;;;;;79.72;7.97;;;7.60;99.90;;;;;;4901562;29;20048;-85
2022/04/20 06:47:29;;;;;;;8.80;4.30;;;7.80;99.90;;;;;;4904653;29;20075;-84
2022/04/20 06:49:55;;;;;;;8.85;4.60;;;7.90;99.90;;;;;;4902062;29;20488;-81
2022/04/20 07:00:34;;;;;;;8.90;4.57;;;8.20;99.90;;;;;;4880005;29;20057;-83
2022/04/20 07:03:01;;;;;;;12.07;4.85;;;8.40;99.90;;;;;;4892032;29;20040;-83
2022/04/20 07:05:27;;;;;;;8.98;4.85;;;8.80;99.90;;;;;;4892030;29;20466;-84
2022/04/20 07:07:53;;;;;;;6.43;4.35;;;8.50;99.90;;;;;;4876450;29;20043;-84
2022/04/20 07:10:19;;;;;;;8.70;4.72;;;8.70;99.90;;;;;;4891958;29;20059;-83
2022/04/20 07:12:44;;;;;;;7.90;4.47;;;8.70;99.90;;;;;;4875332;29;20091;-85
2022/04/20 07:15:10;;;;;;;9.77;4.20;;;8.90;99.90;;;;;;4875238;29;20041;-83
2022/04/20 07:17:36;;;;;;;8.93;4.22;;;9.00;99.90;;;;;;4892136;29;20064;-83
2022/04/20 07:20:04;;;;;;;10.63;4.10;;;9.50;99.90;;;;;;4875046;29;20386;-83
2022/04/20 07:22:30;;;;;;;8.52;3.85;;;9.20;99.90;;;;;;4877224;29;20092;-84
2022/04/20 07:24:55;;;;;;;10.40;3.70;;;9.30;99.90;;;;;;4891173;29;20488;-87
2022/04/20 07:27:21;;;;;;;13.23;4.00;;;9.40;99.90;;;;;;4876519;29;20095;-86
2022/04/20 07:29:50;;;;;;;18.52;5.32;;;9.50;99.90;;;;;;4877148;29;20045;-85
2022/04/20 07:32:16;;;;;;;9.88;3.42;;;9.60;99.90;;;;;;4893102;29;20122;-86
2022/04/20 07:34:41;;;;;;;8.38;3.50;;;9.80;99.90;;;;;;4876253;29;20119;-86
2022/04/20 07:37:12;;;;;;;6.25;3.20;;;9.90;99.90;;;;;;4876385;29;20044;-86
2022/04/20 07:39:38;;;;;;;6.60;3.10;;;10.10;99.90;;;;;;4871319;29;20055;-83
2022/04/20 07:42:05;;;;;;;7.00;3.05;;;10.00;99.90;;;;;;4875541;29;20048;-84
2022/04/20 07:44:31;;;;;;;6.45;2.83;;;10.10;99.90;;;;;;4876389;29;20056;-84
2022/04/20 07:46:56;;;;;;;5.15;2.53;;;10.20;99.90;;;;;;4875212;29;20049;-84
2022/04/20 07:52:06;;;;;;;9.32;2.65;;;10.40;99.90;;;;;;4873408;29;20049;-83
2022/04/20 07:54:32;;;;;;;5.03;2.28;;;10.40;99.90;;;;;;4873742;29;20045;-84
2022/04/20 07:56:58;;;;;;;5.55;2.28;;;10.70;99.90;;;;;;4856776;29;20144;-84
2022/04/20 07:59:24;;;;;;;4.65;2.53;;;10.60;99.90;;;;;;4857468;29;20057;-83
2022/04/20 08:01:49;;;;;;;6.65;2.30;;;10.70;99.90;;;;;;4856624;29;20059;-84
2022/04/20 08:04:16;;;;;;;3.15;1.92;;;10.80;99.90;;;;;;4857575;29;20061;-83
2022/04/20 08:06:42;;;;;;;4.07;1.90;;;10.90;99.90;;;;;;4873524;29;20088;-83
2022/04/20 08:09:07;;;;;;;6.43;2.35;;;11.00;99.90;;;;;;4856489;29;20080;-83
2022/04/20 08:11:33;;;;;;;6.47;1.80;;;11.10;99.90;;;;;;4858400;29;20084;-83
2022/04/20 08:14:11;;;;;;;3.55;1.90;;;11.10;99.90;;;;;;4856084;29;20120;-84
2022/04/20 08:16:37;;;;;;;5.35;1.80;;;11.40;99.90;;;;;;4873086;29;20045;-83
2022/04/20 08:19:03;;;;;;;5.88;1.80;;;11.30;99.90;;;;;;4872518;29;20513;-84
2022/04/20 08:21:29;;;;;;;4.38;1.88;;;11.40;99.90;;;;;;4858078;29;20049;-84
2022/04/20 08:23:54;;;;;;;4.05;1.63;;;11.80;99.90;;;;;;4856288;29;20048;-83
2022/04/20 08:26:20;;;;;;;4.10;1.40;;;11.60;99.90;;;;;;4858002;29;20089;-83
2022/04/20 08:28:46;;;;;;;10.13;1.98;;;11.70;99.90;;;;;;4872595;29;20064;-83
2022/04/20 08:31:14;;;;;;;3.38;1.60;;;12.30;99.90;;;;;;4856567;29;20637;-84
2022/04/20 08:33:42;;;;;;;4.07;1.65;;;11.80;99.90;;;;;;4873594;29;20084;-84
2022/04/20 08:36:07;;;;;;;7.82;1.90;;;11.90;99.90;;;;;;4880130;29;20049;-83
2022/04/20 08:38:33;;;;;;;2.83;1.60;;;12.00;99.90;;;;;;4876059;29;20048;-83
2022/04/20 08:41:00;;;;;;;4.50;1.90;;;12.40;99.90;;;;;;4890388;29;20044;-83
2022/04/20 08:43:28;;;;;;;3.22;1.38;;;12.10;99.90;;;;;;4891186;29;20143;-83
2022/04/20 08:45:58;;;;;;;5.00;1.58;;;12.20;99.90;;;;;;4872811;29;20045;-80
2022/04/20 08:48:24;;;;;;;3.50;1.70;;;12.20;99.90;;;;;;4886062;29;20119;-79
2022/04/20 08:50:59;;;;;;;6.90;1.98;;;12.30;99.90;;;;;;4873297;29;20044;-79
2022/04/20 08:53:25;;;;;;;3.80;1.67;;;12.40;99.90;;;;;;4889417;29;20053;-79
2022/04/20 08:57:15;;;;;;;5.35;1.70;;;12.40;99.90;;;;;;4888809;29;20077;-80
2022/04/20 08:58:38;;;;;;;7.65;1.60;;;12.60;99.90;;;;;;4892207;29;20061;-80
2022/04/20 09:01:04;;;;;;;4.93;1.73;;;12.60;99.90;;;;;;4875382;29;20145;-80
2022/04/20 09:03:33;;;;;;;18.35;2.10;;;13.20;99.90;;;;;;4877335;29;20092;-80
2022/04/20 09:06:00;;;;;;;9.00;1.80;;;12.80;99.90;;;;;;4876348;29;20053;-80
2022/04/20 09:08:26;;;;;;;7.40;1.80;;;12.90;99.70;;;;;;4901251;29;20099;-80
2022/04/20 09:10:53;;;;;;;3.90;1.92;;;12.90;98.90;;;;;;4898613;29;20071;-80
2022/04/20 09:13:35;;;;;;;3.38;1.42;;;13.00;98.60;;;;;;4885644;29;20587;-79
2022/04/20 09:16:06;;;;;;;4.15;1.80;;;13.10;96.20;;;;;;4897282;29;20060;-80
2022/04/20 09:18:32;;;;;;;4.55;1.38;;;13.10;96.50;;;;;;4902039;29;20153;-79
2022/04/20 09:21:05;;;;;;;2.83;1.45;;;13.20;97.60;;;;;;4897799;29;20056;-80
2022/04/20 09:23:32;;;;;;;2.38;1.48;;;13.40;95.90;;;;;;4901940;29;20849;-80
2022/04/20 09:26:09;;;;;;;3.53;1.30;;;13.70;97.00;;;;;;4882679;29;20451;-80
2022/04/20 09:28:37;;;;;;;4.10;1.40;;;13.40;96.00;;;;;;4883690;29;20088;-79
2022/04/20 09:31:04;;;;;;;4.72;1.45;;;13.40;94.60;;;;;;4882953;29;20056;-80
2022/04/20 09:33:45;;;;;;;11.77;1.67;;;13.50;94.80;;;;;;4890482;29;20048;-80
2022/04/20 09:36:13;;;;;;;5.80;1.35;;;13.50;92.20;;;;;;4907536;29;20056;-79
2022/04/20 09:38:59;;;;;;;5.47;1.20;;;13.60;92.50;;;;;;4884535;29;20448;-79
2022/04/20 09:41:24;;;;;;;4.50;1.60;;;13.60;91.60;;;;;;4879587;29;20048;-79
2022/04/20 09:44:08;;;;;;;4.50;1.33;;;13.70;91.40;;;;;;4900784;29;20134;-79
2022/04/20 09:49:34;;;;;;;3.88;1.20;;;13.90;87.00;;;;;;4891117;29;20448;-80
2022/04/20 09:52:10;;;;;;;6.78;1.95;;;13.90;88.70;;;;;;4894934;29;20055;-79
2022/04/20 09:54:36;;;;;;;3.33;1.15;;;14.00;87.50;;;;;;4908298;29;20563;-80
2022/04/20 09:57:11;;;;;;;2.90;1.23;;;14.00;87.80;;;;;;4911788;29;20110;-79
2022/04/20 09:59:37;;;;;;;4.75;1.48;;;14.10;83.50;;;;;;4909226;29;20060;-80
2022/04/20 10:02:12;;;;;;;4.97;1.52;;;14.20;85.50;;;;;;4902144;29;20571;-79
2022/04/20 10:04:42;;;;;;;4.03;1.33;;;14.30;84.40;;;;;;4916550;29;20449;-79
2022/04/20 10:07:08;;;;;;;5.20;1.60;;;14.20;85.40;;;;;;4878673;29;20056;-79
2022/04/20 10:09:33;;;;;;;3.75;1.60;;;14.20;85.90;;;;;;4883551;29;20070;-79
2022/04/20 10:12:00;;;;;;;5.35;1.48;;;14.30;85.80;;;;;;4923781;29;20052;-79
2022/04/20 10:17:18;;;;;;;5.95;1.52;;;14.50;87.50;;;;;;4878209;29;20139;-79
2022/04/20 10:19:45;;;;;;;5.28;1.20;;;14.60;86.10;;;;;;4907786;29;20114;-79
2022/04/20 10:22:11;;;;;;;5.22;1.23;;;14.60;84.50;;;;;;4886579;29;20541;-79
2022/04/20 10:24:41;;;;;;;5.30;0.93;;;14.60;82.90;;;;;;4902729;29;20058;-79
2022/04/20 10:27:13;;;;;;;1.73;0.80;;;14.80;83.10;;;;;;4899241;29;20135;-80
2022/04/20 10:29:46;;;;;;;2.93;1.10;;;14.90;82.20;;;;;;4894262;29;20127;-79
2022/04/20 10:32:22;;;;;;;2.75;1.00;;;14.90;82.20;;;;;;4902519;29;20062;-80
2022/04/20 10:34:50;;;;;;;3.53;1.20;;;15.10;80.60;;;;;;4900414;29;20224;-79
2022/04/20 10:37:22;;;;;;;7.57;1.13;;;15.10;79.70;;;;;;4925609;29;20103;-79
2022/04/20 10:39:47;;;;;;;4.20;1.20;;;15.10;76.50;;;;;;4917453;29;20087;-79
2022/04/20 10:42:16;;;;;;;6.70;1.20;;;15.10;77.00;;;;;;4917702;29;20090;-79
2022/04/20 10:44:55;;;;;;;5.68;1.20;;;15.10;76.90;;;;;;4900565;29;20058;-79
2022/04/20 10:47:34;;;;;;;3.35;0.98;;;15.30;74.20;;;;;;4914324;29;20047;-80
2022/04/20 10:50:18;;;;;;;2.35;1.05;;;15.20;74.80;;;;;;4900780;29;20642;-80
2022/04/20 10:52:55;;;;;;;;;;;15.20;73.10;;;;;;4894443;29;20043;-79
2022/04/20 10:55:31;;;;;;;3.67;1.08;;;15.20;74.40;;;;;;4924997;29;19922;-80
2022/04/20 10:58:02;;;;;;;5.38;1.30;;;15.30;74.60;;;;;;4913967;29;20090;-80
2022/04/20 11:00:34;;;;;;;5.05;1.02;;;15.40;75.40;;;;;;4910695;29;20504;-79
2022/04/20 11:03:05;;;;;;;9.70;1.08;;;15.50;75.00;;;;;;4931785;29;20056;-80
2022/04/20 11:05:32;;;;;;;2.88;0.70;;;15.60;74.90;;;;;;4902557;29;20060;-80
2022/04/20 11:08:11;;;;;;;5.85;1.08;;;15.70;74.30;;;;;;4912875;29;20055;-80
2022/04/20 11:10:41;;;;;;;1.65;0.70;;;15.70;73.50;;;;;;4880893;29;20048;-80
2022/04/20 11:19:04;;;;;;;2.42;0.60;;;15.90;73.40;;;;;;4913866;29;20130;-80
2022/04/20 11:21:30;;;;;;;2.05;0.77;;;15.90;72.00;;;;;;4914862;29;20107;-80
2022/04/20 11:23:58;;;;;;;10.20;1.02;;;15.80;71.90;;;;;;4914194;29;20054;-80
2022/04/20 11:26:28;;;;;;;2.95;0.70;;;16.00;71.70;;;;;;4914272;29;20056;-80
2022/04/20 11:28:55;;;;;;;7.18;0.80;;;16.10;73.70;;;;;;4913258;29;20051;-80
2022/04/20 11:31:21;;;;;;;2.95;0.70;;;16.20;72.70;;;;;;4914991;29;20118;-80
2022/04/20 11:33:53;;;;;;;3.35;0.70;;;16.30;72.40;;;;;;4913437;29;20139;-80
2022/04/20 11:36:19;;;;;;;2.47;0.80;;;16.20;71.20;;;;;;4899119;29;20134;-80
2022/04/20 11:38:48;;;;;;;2.33;0.70;;;16.40;70.80;;;;;;4914901;29;20052;-79
2022/04/20 11:41:16;;;;;;;4.38;0.90;;;16.30;70.80;;;;;;4907078;29;20128;-79
2022/04/20 11:43:45;;;;;;;4.60;0.77;;;16.40;72.30;;;;;;4886402;29;20060;-79
2022/04/20 11:46:11;;;;;;;2.63;0.77;;;16.40;72.10;;;;;;4896612;29;20089;-79
2022/04/20 11:48:38;;;;;;;1.92;0.77;;;16.50;71.60;;;;;;4904931;29;20527;-79
2022/04/20 11:51:08;;;;;;;6.00;0.90;;;16.60;72.10;;;;;;4911224;29;20043;-78
2022/04/20 11:53:35;;;;;;;3.28;0.75;;;16.70;70.30;;;;;;4887307;29;20066;-79
2022/04/20 11:56:02;;;;;;;2.67;0.70;;;16.60;71.10;;;;;;4909108;29;20399;-79
2022/04/20 11:58:28;;;;;;;5.05;0.80;;;16.70;71.00;;;;;;4915242;29;20182;-78
2022/04/20 12:01:02;;;;;;;9.27;0.98;;;16.70;70.30;;;;;;4911839;29;20485;-79
2022/04/20 12:03:30;;;;;;;2.72;0.80;;;16.70;70.50;;;;;;4906437;29;20600;-79
2022/04/20 12:06:06;;;;;;;2.42;1.10;;;16.80;70.60;;;;;;4900894;29;20043;-79
2022/04/20 12:08:33;;;;;;;5.03;1.00;;;16.90;71.20;;;;;;4900937;29;20092;-79
2022/04/20 12:11:04;;;;;;;1.77;0.80;;;17.00;71.90;;;;;;4910234;29;20055;-79
2022/04/20 12:13:33;;;;;;;3.25;0.80;;;17.00;70.50;;;;;;4905746;29;20516;-80
2022/04/20 12:16:03;;;;;;;2.08;0.70;;;17.10;70.90;;;;;;4863483;29;20044;-79
2022/04/20 12:18:32;;;;;;;2.08;0.70;;;17.00;69.80;;;;;;4907047;29;20103;-80
2022/04/20 12:20:59;;;;;;;2.33;0.88;;;17.00;69.40;;;;;;4904503;29;20131;-79
2022/04/20 12:23:32;;;;;;;11.30;1.08;;;17.00;69.90;;;;;;4910646;29;20048;-82
2022/04/20 12:25:58;;;;;;;7.38;1.05;;;17.00;69.10;;;;;;4894287;29;20138;-82
2022/04/20 12:28:36;;;;;;;3.78;0.90;;;17.10;71.40;;;;;;4876383;29;20195;-82
2022/04/20 12:31:02;;;;;;;3.67;1.05;;;17.20;70.10;;;;;;4875025;29;20045;-83
2022/04/20 12:33:29;;;;;;;2.63;1.00;;;17.20;69.90;;;;;;4863554;29;20049;-82
2022/04/20 12:36:01;;;;;;;2.67;1.00;;;17.20;69.10;;;;;;4879699;29;20052;-82
2022/04/20 12:38:28;;;;;;;1.50;0.70;;;17.20;68.40;;;;;;4876903;29;20044;-80
2022/04/20 12:40:54;;;;;;;2.30;0.90;;;17.10;69.60;;;;;;4887950;29;20044;-80
2022/04/20 12:43:20;;;;;;;10.50;1.35;;;17.20;69.60;;;;;;4908488;29;20091;-80
2022/04/20 12:45:46;;;;;;;7.20;1.05;;;17.20;70.00;;;;;;4901763;29;20108;-79
2022/04/20 12:48:11;;;;;;;4.03;1.10;;;17.20;69.40;;;;;;4890174;29;20048;-80
2022/04/20 12:50:39;;;;;;;2.25;0.90;;;17.20;69.40;;;;;;4907660;29;20127;-79
2022/04/20 12:53:05;;;;;;;5.03;1.33;;;17.20;68.20;;;;;;4885217;29;20052;-79
2022/04/20 12:55:38;;;;;;;4.43;1.00;;;17.10;68.80;;;;;;4904640;29;20052;-80
2022/04/20 13:03:42;;;;;;;4.72;1.13;;;17.10;69.50;;;;;;4909504;29;20135;-79
2022/04/20 13:06:10;;;;;;;4.13;1.08;;;17.10;68.80;;;;;;4889033;29;20059;-79
2022/04/20 13:08:39;;;;;;;3.03;1.27;;;17.10;68.60;;;;;;4888462;29;20124;-79
2022/04/20 13:11:05;;;;;;;5.38;1.23;;;17.00;68.70;;;;;;4899968;29;20048;-79
2022/04/20 13:13:32;;;;;;;4.50;1.13;;;17.00;68.90;;;;;;4910345;29;20594;-79
2022/04/20 13:15:58;;;;;;;8.98;1.25;;;17.10;69.90;;;;;;4903004;29;20060;-79
2022/04/20 13:18:24;;;;;;;2.92;1.10;;;17.10;70.20;;;;;;4895818;29;20060;-79
2022/04/20 13:20:53;;;;;;;2.58;1.40;;;17.10;70.30;;;;;;4902063;29;20055;-82
2022/04/20 13:23:18;;;;;;;6.78;2.13;;;17.10;71.40;;;;;;4910553;29;20071;-79
2022/04/20 13:28:29;;;;;;;4.20;1.50;;;17.10;72.70;;;;;;4896096;29;20070;-80
2022/04/20 13:30:56;;;;;;;7.63;2.55;;;17.20;73.70;;;;;;4895529;29;20048;-80